sensor_id;sensor_type;location;lat;lon;timestamp;P1;durP1;ratioP1;P2;durP2;ratioP2
40072;SDS011;25774;52.256;9.356;2023-08-17T00:02:07;4.20;;;1.17;;
40072;SDS011;25774;52.256;9.356;2023-08-17T00:04:32;3.17;;;1.10;;
40072;SDS011;25774;52.256;9.356;2023-08-17T00:06:57;3.47;;;1.50;;
40072;SDS011;25774;52.256;9.356;2023-08-17T00:09:24;2.78;;;1.23;;
40072;SDS011;25774;52.256;9.356;2023-08-17T00:14:15;3.38;;;1.17;;
40072;SDS011;25774;52.256;9.356;2023-08-17T00:19:06;3.13;;;1.38;;
40072;SDS011;25774;52.256;9.356;2023-08-17T00:21:31;5.60;;;1.57;;
40072;SDS011;25774;52.256;9.356;2023-08-17T00:23:57;3.37;;;1.30;;
40072;SDS011;25774;52.256;9.356;2023-08-17T00:26:22;3.10;;;1.33;;
40072;SDS011;25774;52.256;9.356;2023-08-17T00:28:47;4.43;;;1.50;;
40072;SDS011;25774;52.256;9.356;2023-08-17T00:31:14;5.80;;;1.60;;
40072;SDS011;25774;52.256;9.356;2023-08-17T00:33:40;4.80;;;1.40;;
40072;SDS011;25774;52.256;9.356;2023-08-17T00:36:05;3.40;;;1.20;;
40072;SDS011;25774;52.256;9.356;2023-08-17T00:38:30;3.30;;;1.20;;
40072;SDS011;25774;52.256;9.356;2023-08-17T00:40:55;4.00;;;1.47;;
40072;SDS011;25774;52.256;9.356;2023-08-17T00:43:20;3.70;;;1.20;;
40072;SDS011;25774;52.256;9.356;2023-08-17T00:45:46;6.83;;;1.47;;
40072;SDS011;25774;52.256;9.356;2023-08-17T00:48:11;5.90;;;1.40;;
40072;SDS011;25774;52.256;9.356;2023-08-17T00:50:37;3.55;;;1.25;;
40072;SDS011;25774;52.256;9.356;2023-08-17T00:53:02;2.85;;;1.20;;
40072;SDS011;25774;52.256;9.356;2023-08-17T00:55:28;5.00;;;1.67;;
40072;SDS011;25774;52.256;9.356;2023-08-17T00:57:53;3.20;;;1.10;;
40072;SDS011;25774;52.256;9.356;2023-08-17T01:00:20;5.43;;;1.90;;
40072;SDS011;25774;52.256;9.356;2023-08-17T01:02:46;4.20;;;1.53;;
40072;SDS011;25774;52.256;9.356;2023-08-17T01:05:11;7.10;;;1.40;;
40072;SDS011;25774;52.256;9.356;2023-08-17T01:07:36;4.37;;;1.40;;
40072;SDS011;25774;52.256;9.356;2023-08-17T01:10:04;4.97;;;1.70;;
40072;SDS011;25774;52.256;9.356;2023-08-17T01:12:32;4.45;;;1.60;;
40072;SDS011;25774;52.256;9.356;2023-08-17T01:15:12;3.70;;;1.60;;
40072;SDS011;25774;52.256;9.356;2023-08-17T01:17:41;4.85;;;2.53;;
40072;SDS011;25774;52.256;9.356;2023-08-17T01:20:08;4.22;;;1.67;;
40072;SDS011;25774;52.256;9.356;2023-08-17T01:22:34;4.55;;;1.83;;
40072;SDS011;25774;52.256;9.356;2023-08-17T01:27:26;4.13;;;2.00;;
40072;SDS011;25774;52.256;9.356;2023-08-17T01:29:51;7.00;;;1.87;;
40072;SDS011;25774;52.256;9.356;2023-08-17T01:32:29;4.68;;;2.10;;
40072;SDS011;25774;52.256;9.356;2023-08-17T01:34:59;6.93;;;1.63;;
40072;SDS011;25774;52.256;9.356;2023-08-17T01:37:28;3.47;;;1.70;;
40072;SDS011;25774;52.256;9.356;2023-08-17T01:39:54;8.48;;;1.48;;
40072;SDS011;25774;52.256;9.356;2023-08-17T01:42:20;6.88;;;1.85;;
40072;SDS011;25774;52.256;9.356;2023-08-17T01:44:45;3.17;;;1.30;;
40072;SDS011;25774;52.256;9.356;2023-08-17T01:47:11;4.43;;;1.70;;
40072;SDS011;25774;52.256;9.356;2023-08-17T01:49:36;5.93;;;1.83;;
40072;SDS011;25774;52.256;9.356;2023-08-17T01:52:02;4.63;;;1.80;;
40072;SDS011;25774;52.256;9.356;2023-08-17T01:54:28;7.50;;;1.88;;
40072;SDS011;25774;52.256;9.356;2023-08-17T01:56:53;6.20;;;1.97;;
40072;SDS011;25774;52.256;9.356;2023-08-17T01:59:18;5.57;;;1.70;;
40072;SDS011;25774;52.256;9.356;2023-08-17T02:01:44;7.30;;;1.80;;
40072;SDS011;25774;52.256;9.356;2023-08-17T02:04:09;4.38;;;1.95;;
40072;SDS011;25774;52.256;9.356;2023-08-17T02:06:35;3.63;;;1.83;;
40072;SDS011;25774;52.256;9.356;2023-08-17T02:09:00;5.90;;;1.60;;
40072;SDS011;25774;52.256;9.356;2023-08-17T02:11:27;4.60;;;2.23;;
40072;SDS011;25774;52.256;9.356;2023-08-17T02:13:53;5.03;;;1.88;;
40072;SDS011;25774;52.256;9.356;2023-08-17T02:16:18;9.97;;;2.47;;
40072;SDS011;25774;52.256;9.356;2023-08-17T02:18:44;6.60;;;2.07;;
40072;SDS011;25774;52.256;9.356;2023-08-17T02:23:35;7.03;;;2.17;;
40072;SDS011;25774;52.256;9.356;2023-08-17T02:26:01;4.53;;;1.80;;
40072;SDS011;25774;52.256;9.356;2023-08-17T02:28:27;4.90;;;1.73;;
40072;SDS011;25774;52.256;9.356;2023-08-17T02:33:17;4.60;;;2.20;;
40072;SDS011;25774;52.256;9.356;2023-08-17T02:35:49;4.03;;;2.07;;
40072;SDS011;25774;52.256;9.356;2023-08-17T02:38:14;5.25;;;2.17;;
40072;SDS011;25774;52.256;9.356;2023-08-17T02:40:39;4.40;;;2.13;;
40072;SDS011;25774;52.256;9.356;2023-08-17T02:43:04;5.70;;;3.07;;
40072;SDS011;25774;52.256;9.356;2023-08-17T02:45:33;4.53;;;2.27;;
40072;SDS011;25774;52.256;9.356;2023-08-17T02:47:59;5.30;;;2.83;;
40072;SDS011;25774;52.256;9.356;2023-08-17T02:52:49;6.57;;;2.47;;
40072;SDS011;25774;52.256;9.356;2023-08-17T02:55:15;6.23;;;3.00;;
40072;SDS011;25774;52.256;9.356;2023-08-17T02:57:40;7.37;;;3.20;;
40072;SDS011;25774;52.256;9.356;2023-08-17T03:00:05;7.77;;;3.43;;
40072;SDS011;25774;52.256;9.356;2023-08-17T03:02:32;5.18;;;2.58;;
40072;SDS011;25774;52.256;9.356;2023-08-17T03:07:22;6.00;;;3.30;;
40072;SDS011;25774;52.256;9.356;2023-08-17T03:09:47;6.07;;;3.60;;
40072;SDS011;25774;52.256;9.356;2023-08-17T03:12:12;5.30;;;3.10;;
40072;SDS011;25774;52.256;9.356;2023-08-17T03:14:38;4.63;;;2.73;;
40072;SDS011;25774;52.256;9.356;2023-08-17T03:17:04;8.83;;;3.20;;
40072;SDS011;25774;52.256;9.356;2023-08-17T03:21:55;7.32;;;2.83;;
40072;SDS011;25774;52.256;9.356;2023-08-17T03:26:45;4.28;;;2.80;;
40072;SDS011;25774;52.256;9.356;2023-08-17T03:29:11;8.17;;;3.60;;
40072;SDS011;25774;52.256;9.356;2023-08-17T03:31:36;5.33;;;2.67;;
40072;SDS011;25774;52.256;9.356;2023-08-17T03:34:01;6.00;;;2.90;;
40072;SDS011;25774;52.256;9.356;2023-08-17T03:36:27;7.93;;;3.42;;
40072;SDS011;25774;52.256;9.356;2023-08-17T03:38:52;3.65;;;2.33;;
40072;SDS011;25774;52.256;9.356;2023-08-17T03:41:18;4.77;;;2.37;;
40072;SDS011;25774;52.256;9.356;2023-08-17T03:43:44;4.88;;;2.67;;
40072;SDS011;25774;52.256;9.356;2023-08-17T03:46:09;5.67;;;3.23;;
40072;SDS011;25774;52.256;9.356;2023-08-17T03:48:35;3.90;;;2.13;;
40072;SDS011;25774;52.256;9.356;2023-08-17T03:53:26;4.88;;;2.92;;
40072;SDS011;25774;52.256;9.356;2023-08-17T03:55:53;4.73;;;3.03;;
40072;SDS011;25774;52.256;9.356;2023-08-17T03:58:18;6.25;;;3.50;;
40072;SDS011;25774;52.256;9.356;2023-08-17T04:00:49;6.00;;;3.43;;
40072;SDS011;25774;52.256;9.356;2023-08-17T04:03:15;5.40;;;2.95;;
40072;SDS011;25774;52.256;9.356;2023-08-17T04:05:41;4.77;;;2.97;;
40072;SDS011;25774;52.256;9.356;2023-08-17T04:08:06;5.40;;;3.30;;
40072;SDS011;25774;52.256;9.356;2023-08-17T04:10:31;5.33;;;3.10;;
40072;SDS011;25774;52.256;9.356;2023-08-17T04:12:56;5.73;;;3.83;;
40072;SDS011;25774;52.256;9.356;2023-08-17T04:15:21;5.83;;;3.50;;
40072;SDS011;25774;52.256;9.356;2023-08-17T04:17:47;4.37;;;3.40;;
40072;SDS011;25774;52.256;9.356;2023-08-17T04:20:12;6.20;;;4.10;;
40072;SDS011;25774;52.256;9.356;2023-08-17T04:22:37;8.53;;;4.57;;
40072;SDS011;25774;52.256;9.356;2023-08-17T04:25:02;6.23;;;3.90;;
40072;SDS011;25774;52.256;9.356;2023-08-17T04:27:28;8.33;;;4.70;;
40072;SDS011;25774;52.256;9.356;2023-08-17T04:29:54;7.07;;;4.13;;
40072;SDS011;25774;52.256;9.356;2023-08-17T04:34:45;7.73;;;4.40;;
40072;SDS011;25774;52.256;9.356;2023-08-17T04:37:10;7.93;;;4.78;;
40072;SDS011;25774;52.256;9.356;2023-08-17T04:39:36;5.03;;;3.58;;
40072;SDS011;25774;52.256;9.356;2023-08-17T04:42:02;7.07;;;4.87;;
40072;SDS011;25774;52.256;9.356;2023-08-17T04:46:53;6.47;;;4.07;;
40072;SDS011;25774;52.256;9.356;2023-08-17T04:49:18;9.97;;;4.27;;
40072;SDS011;25774;52.256;9.356;2023-08-17T04:51:44;7.30;;;4.33;;
40072;SDS011;25774;52.256;9.356;2023-08-17T04:54:09;7.23;;;4.20;;
40072;SDS011;25774;52.256;9.356;2023-08-17T04:56:34;6.87;;;3.83;;
40072;SDS011;25774;52.256;9.356;2023-08-17T04:58:59;6.87;;;4.43;;
40072;SDS011;25774;52.256;9.356;2023-08-17T05:01:24;6.90;;;4.17;;
40072;SDS011;25774;52.256;9.356;2023-08-17T05:03:50;7.80;;;4.30;;
40072;SDS011;25774;52.256;9.356;2023-08-17T05:06:15;6.10;;;3.95;;
40072;SDS011;25774;52.256;9.356;2023-08-17T05:08:40;7.57;;;4.73;;
40072;SDS011;25774;52.256;9.356;2023-08-17T05:11:06;7.30;;;3.73;;
40072;SDS011;25774;52.256;9.356;2023-08-17T05:13:31;7.40;;;4.43;;
40072;SDS011;25774;52.256;9.356;2023-08-17T05:15:57;7.70;;;4.07;;
40072;SDS011;25774;52.256;9.356;2023-08-17T05:20:48;11.10;;;4.07;;
40072;SDS011;25774;52.256;9.356;2023-08-17T05:23:13;11.67;;;5.37;;
40072;SDS011;25774;52.256;9.356;2023-08-17T05:25:38;8.73;;;4.87;;
40072;SDS011;25774;52.256;9.356;2023-08-17T05:28:04;11.30;;;5.33;;
40072;SDS011;25774;52.256;9.356;2023-08-17T05:30:29;11.38;;;5.82;;
40072;SDS011;25774;52.256;9.356;2023-08-17T05:32:55;6.73;;;4.10;;
40072;SDS011;25774;52.256;9.356;2023-08-17T05:35:20;9.63;;;5.10;;
40072;SDS011;25774;52.256;9.356;2023-08-17T05:37:45;7.88;;;4.95;;
40072;SDS011;25774;52.256;9.356;2023-08-17T05:40:12;8.57;;;5.80;;
40072;SDS011;25774;52.256;9.356;2023-08-17T05:42:37;10.55;;;6.32;;
40072;SDS011;25774;52.256;9.356;2023-08-17T05:45:03;6.53;;;4.70;;
40072;SDS011;25774;52.256;9.356;2023-08-17T05:47:28;8.07;;;5.20;;
40072;SDS011;25774;52.256;9.356;2023-08-17T05:49:53;13.30;;;5.60;;
40072;SDS011;25774;52.256;9.356;2023-08-17T05:52:18;9.47;;;6.13;;
40072;SDS011;25774;52.256;9.356;2023-08-17T05:54:44;10.00;;;5.00;;
40072;SDS011;25774;52.256;9.356;2023-08-17T05:57:09;11.67;;;5.03;;
40072;SDS011;25774;52.256;9.356;2023-08-17T05:59:35;10.30;;;5.40;;
40072;SDS011;25774;52.256;9.356;2023-08-17T06:02:01;7.53;;;4.07;;
40072;SDS011;25774;52.256;9.356;2023-08-17T06:04:28;9.48;;;5.30;;
40072;SDS011;25774;52.256;9.356;2023-08-17T06:06:53;11.68;;;5.30;;
40072;SDS011;25774;52.256;9.356;2023-08-17T06:09:19;10.95;;;5.47;;
40072;SDS011;25774;52.256;9.356;2023-08-17T06:11:44;10.07;;;5.77;;
40072;SDS011;25774;52.256;9.356;2023-08-17T06:14:10;10.83;;;5.70;;
40072;SDS011;25774;52.256;9.356;2023-08-17T06:16:35;7.83;;;4.23;;
40072;SDS011;25774;52.256;9.356;2023-08-17T06:19:00;12.48;;;6.65;;
40072;SDS011;25774;52.256;9.356;2023-08-17T06:21:26;11.07;;;6.80;;
40072;SDS011;25774;52.256;9.356;2023-08-17T06:23:51;8.57;;;4.43;;
40072;SDS011;25774;52.256;9.356;2023-08-17T06:26:16;6.90;;;4.60;;
40072;SDS011;25774;52.256;9.356;2023-08-17T06:28:41;5.83;;;4.47;;
40072;SDS011;25774;52.256;9.356;2023-08-17T06:31:06;4.77;;;4.00;;
40072;SDS011;25774;52.256;9.356;2023-08-17T06:33:33;7.37;;;4.87;;
40072;SDS011;25774;52.256;9.356;2023-08-17T06:38:24;7.00;;;5.55;;
40072;SDS011;25774;52.256;9.356;2023-08-17T06:43:14;9.50;;;6.53;;
40072;SDS011;25774;52.256;9.356;2023-08-17T06:45:40;6.90;;;5.60;;
40072;SDS011;25774;52.256;9.356;2023-08-17T06:48:05;7.83;;;4.93;;
40072;SDS011;25774;52.256;9.356;2023-08-17T06:50:30;5.68;;;5.07;;
40072;SDS011;25774;52.256;9.356;2023-08-17T06:52:56;8.67;;;6.33;;
40072;SDS011;25774;52.256;9.356;2023-08-17T06:55:21;7.57;;;5.80;;
40072;SDS011;25774;52.256;9.356;2023-08-17T06:57:46;7.83;;;6.13;;
40072;SDS011;25774;52.256;9.356;2023-08-17T07:00:12;6.88;;;6.05;;
40072;SDS011;25774;52.256;9.356;2023-08-17T07:02:38;7.65;;;5.97;;
40072;SDS011;25774;52.256;9.356;2023-08-17T07:05:03;7.80;;;6.60;;
40072;SDS011;25774;52.256;9.356;2023-08-17T07:07:29;6.68;;;5.78;;
40072;SDS011;25774;52.256;9.356;2023-08-17T07:12:20;6.60;;;5.90;;
40072;SDS011;25774;52.256;9.356;2023-08-17T07:14:45;9.60;;;6.60;;
40072;SDS011;25774;52.256;9.356;2023-08-17T07:17:10;8.03;;;6.20;;
40072;SDS011;25774;52.256;9.356;2023-08-17T07:19:35;6.67;;;5.70;;
40072;SDS011;25774;52.256;9.356;2023-08-17T07:22:02;7.07;;;5.80;;
40072;SDS011;25774;52.256;9.356;2023-08-17T07:24:27;6.78;;;5.80;;
40072;SDS011;25774;52.256;9.356;2023-08-17T07:26:52;6.30;;;5.50;;
40072;SDS011;25774;52.256;9.356;2023-08-17T07:29:18;7.47;;;6.50;;
40072;SDS011;25774;52.256;9.356;2023-08-17T07:31:43;6.00;;;4.53;;
40072;SDS011;25774;52.256;9.356;2023-08-17T07:34:09;6.07;;;4.60;;
40072;SDS011;25774;52.256;9.356;2023-08-17T07:36:34;7.37;;;5.00;;
40072;SDS011;25774;52.256;9.356;2023-08-17T07:39:00;6.77;;;4.47;;
40072;SDS011;25774;52.256;9.356;2023-08-17T07:41:26;6.53;;;4.50;;
40072;SDS011;25774;52.256;9.356;2023-08-17T07:43:51;5.03;;;4.53;;
40072;SDS011;25774;52.256;9.356;2023-08-17T07:46:17;4.90;;;4.17;;
40072;SDS011;25774;52.256;9.356;2023-08-17T07:48:43;4.47;;;3.78;;
40072;SDS011;25774;52.256;9.356;2023-08-17T07:51:08;4.57;;;3.63;;
40072;SDS011;25774;52.256;9.356;2023-08-17T07:53:33;4.50;;;4.00;;
40072;SDS011;25774;52.256;9.356;2023-08-17T07:55:58;4.60;;;3.10;;
40072;SDS011;25774;52.256;9.356;2023-08-17T07:58:23;4.40;;;3.13;;
40072;SDS011;25774;52.256;9.356;2023-08-17T08:00:49;5.10;;;3.73;;
40072;SDS011;25774;52.256;9.356;2023-08-17T08:03:14;8.03;;;4.30;;
40072;SDS011;25774;52.256;9.356;2023-08-17T08:05:39;5.43;;;4.07;;
40072;SDS011;25774;52.256;9.356;2023-08-17T08:08:05;4.67;;;4.00;;
40072;SDS011;25774;52.256;9.356;2023-08-17T08:10:30;5.47;;;4.77;;
40072;SDS011;25774;52.256;9.356;2023-08-17T08:12:55;4.83;;;3.70;;
40072;SDS011;25774;52.256;9.356;2023-08-17T08:15:20;6.17;;;3.97;;
40072;SDS011;25774;52.256;9.356;2023-08-17T08:17:45;5.33;;;3.90;;
40072;SDS011;25774;52.256;9.356;2023-08-17T08:20:12;4.73;;;4.00;;
40072;SDS011;25774;52.256;9.356;2023-08-17T08:22:37;6.65;;;4.80;;
40072;SDS011;25774;52.256;9.356;2023-08-17T08:25:02;6.73;;;4.37;;
40072;SDS011;25774;52.256;9.356;2023-08-17T08:27:27;6.70;;;3.93;;
40072;SDS011;25774;52.256;9.356;2023-08-17T08:29:53;7.20;;;5.30;;
40072;SDS011;25774;52.256;9.356;2023-08-17T08:32:18;4.73;;;4.00;;
40072;SDS011;25774;52.256;9.356;2023-08-17T08:34:43;5.97;;;3.93;;
40072;SDS011;25774;52.256;9.356;2023-08-17T08:37:08;8.67;;;4.83;;
40072;SDS011;25774;52.256;9.356;2023-08-17T08:39:47;6.37;;;4.63;;
40072;SDS011;25774;52.256;9.356;2023-08-17T08:42:13;9.40;;;5.38;;
40072;SDS011;25774;52.256;9.356;2023-08-17T08:44:38;6.40;;;4.53;;
40072;SDS011;25774;52.256;9.356;2023-08-17T08:47:03;6.87;;;4.83;;
40072;SDS011;25774;52.256;9.356;2023-08-17T08:49:28;7.40;;;4.63;;
40072;SDS011;25774;52.256;9.356;2023-08-17T08:51:55;7.95;;;4.97;;
40072;SDS011;25774;52.256;9.356;2023-08-17T08:54:24;5.75;;;4.75;;
40072;SDS011;25774;52.256;9.356;2023-08-17T08:56:54;5.53;;;4.05;;
40072;SDS011;25774;52.256;9.356;2023-08-17T08:59:23;5.35;;;4.35;;
40072;SDS011;25774;52.256;9.356;2023-08-17T09:01:49;7.55;;;3.85;;
40072;SDS011;25774;52.256;9.356;2023-08-17T09:04:15;6.23;;;3.80;;
40072;SDS011;25774;52.256;9.356;2023-08-17T09:06:40;4.72;;;3.65;;
40072;SDS011;25774;52.256;9.356;2023-08-17T09:09:08;5.10;;;3.65;;
40072;SDS011;25774;52.256;9.356;2023-08-17T09:11:33;4.45;;;3.20;;
40072;SDS011;25774;52.256;9.356;2023-08-17T09:13:59;7.47;;;4.67;;
40072;SDS011;25774;52.256;9.356;2023-08-17T09:16:24;4.20;;;3.37;;
40072;SDS011;25774;52.256;9.356;2023-08-17T09:18:49;7.40;;;4.60;;
40072;SDS011;25774;52.256;9.356;2023-08-17T09:21:23;6.63;;;4.32;;
40072;SDS011;25774;52.256;9.356;2023-08-17T09:23:52;6.57;;;4.32;;
40072;SDS011;25774;52.256;9.356;2023-08-17T09:26:18;7.25;;;4.07;;
40072;SDS011;25774;52.256;9.356;2023-08-17T09:28:44;5.88;;;3.22;;
40072;SDS011;25774;52.256;9.356;2023-08-17T09:31:09;4.90;;;3.77;;
40072;SDS011;25774;52.256;9.356;2023-08-17T09:33:34;3.90;;;3.13;;
40072;SDS011;25774;52.256;9.356;2023-08-17T09:36:00;4.28;;;2.95;;
40072;SDS011;25774;52.256;9.356;2023-08-17T09:38:28;4.00;;;3.47;;
40072;SDS011;25774;52.256;9.356;2023-08-17T09:40:53;6.60;;;4.88;;
40072;SDS011;25774;52.256;9.356;2023-08-17T09:43:19;6.82;;;5.28;;
40072;SDS011;25774;52.256;9.356;2023-08-17T09:45:47;6.97;;;4.95;;
40072;SDS011;25774;52.256;9.356;2023-08-17T09:48:18;7.80;;;4.68;;
40072;SDS011;25774;52.256;9.356;2023-08-17T09:50:46;6.63;;;4.20;;
40072;SDS011;25774;52.256;9.356;2023-08-17T09:53:16;4.15;;;3.45;;
40072;SDS011;25774;52.256;9.356;2023-08-17T09:55:41;4.75;;;3.58;;
40072;SDS011;25774;52.256;9.356;2023-08-17T10:00:33;4.72;;;3.67;;
40072;SDS011;25774;52.256;9.356;2023-08-17T10:02:59;5.60;;;3.47;;
40072;SDS011;25774;52.256;9.356;2023-08-17T10:05:26;4.53;;;3.35;;
40072;SDS011;25774;52.256;9.356;2023-08-17T10:07:54;4.57;;;3.50;;
40072;SDS011;25774;52.256;9.356;2023-08-17T10:10:24;4.32;;;3.10;;
40072;SDS011;25774;52.256;9.356;2023-08-17T10:12:55;4.07;;;3.00;;
40072;SDS011;25774;52.256;9.356;2023-08-17T10:15:23;4.60;;;2.40;;
40072;SDS011;25774;52.256;9.356;2023-08-17T10:17:53;3.90;;;2.67;;
40072;SDS011;25774;52.256;9.356;2023-08-17T10:20:22;2.95;;;2.20;;
40072;SDS011;25774;52.256;9.356;2023-08-17T10:23:07;4.07;;;2.30;;
40072;SDS011;25774;52.256;9.356;2023-08-17T10:28:01;3.20;;;2.15;;
40072;SDS011;25774;52.256;9.356;2023-08-17T10:30:28;2.40;;;1.95;;
40072;SDS011;25774;52.256;9.356;2023-08-17T10:32:54;2.87;;;2.10;;
40072;SDS011;25774;52.256;9.356;2023-08-17T10:35:19;2.63;;;2.00;;
40072;SDS011;25774;52.256;9.356;2023-08-17T10:37:44;2.93;;;2.40;;
40072;SDS011;25774;52.256;9.356;2023-08-17T10:40:10;4.55;;;2.75;;
40072;SDS011;25774;52.256;9.356;2023-08-17T10:42:36;2.83;;;2.20;;
40072;SDS011;25774;52.256;9.356;2023-08-17T10:47:32;2.42;;;1.60;;
40072;SDS011;25774;52.256;9.356;2023-08-17T10:49:58;2.53;;;1.83;;
40072;SDS011;25774;52.256;9.356;2023-08-17T10:54:48;2.97;;;2.20;;
40072;SDS011;25774;52.256;9.356;2023-08-17T10:57:30;2.30;;;1.93;;
40072;SDS011;25774;52.256;9.356;2023-08-17T11:02:49;2.33;;;1.60;;
40072;SDS011;25774;52.256;9.356;2023-08-17T11:05:18;1.70;;;1.35;;
40072;SDS011;25774;52.256;9.356;2023-08-17T11:07:58;1.92;;;1.50;;
40072;SDS011;25774;52.256;9.356;2023-08-17T11:12:49;2.57;;;2.00;;
40072;SDS011;25774;52.256;9.356;2023-08-17T11:15:14;2.67;;;1.80;;
40072;SDS011;25774;52.256;9.356;2023-08-17T11:17:39;2.30;;;1.80;;
40072;SDS011;25774;52.256;9.356;2023-08-17T11:20:04;2.60;;;2.20;;
40072;SDS011;25774;52.256;9.356;2023-08-17T11:22:30;2.28;;;2.03;;
40072;SDS011;25774;52.256;9.356;2023-08-17T11:24:56;2.28;;;1.88;;
40072;SDS011;25774;52.256;9.356;2023-08-17T11:27:21;3.93;;;1.90;;
40072;SDS011;25774;52.256;9.356;2023-08-17T11:29:46;3.85;;;1.80;;
40072;SDS011;25774;52.256;9.356;2023-08-17T11:32:12;3.10;;;1.60;;
40072;SDS011;25774;52.256;9.356;2023-08-17T11:34:37;3.05;;;1.70;;
40072;SDS011;25774;52.256;9.356;2023-08-17T11:37:03;6.20;;;2.60;;
40072;SDS011;25774;52.256;9.356;2023-08-17T11:39:32;3.58;;;1.60;;
40072;SDS011;25774;52.256;9.356;2023-08-17T11:41:57;3.72;;;1.98;;
40072;SDS011;25774;52.256;9.356;2023-08-17T11:44:22;6.20;;;2.17;;
40072;SDS011;25774;52.256;9.356;2023-08-17T11:46:49;5.25;;;2.50;;
40072;SDS011;25774;52.256;9.356;2023-08-17T11:49:15;2.87;;;2.30;;
40072;SDS011;25774;52.256;9.356;2023-08-17T11:51:41;3.35;;;2.55;;
40072;SDS011;25774;52.256;9.356;2023-08-17T11:54:07;3.70;;;3.30;;
40072;SDS011;25774;52.256;9.356;2023-08-17T11:56:33;4.55;;;3.00;;
40072;SDS011;25774;52.256;9.356;2023-08-17T11:58:58;4.65;;;3.65;;
40072;SDS011;25774;52.256;9.356;2023-08-17T12:01:23;4.53;;;3.77;;
40072;SDS011;25774;52.256;9.356;2023-08-17T12:03:49;7.00;;;3.63;;
40072;SDS011;25774;52.256;9.356;2023-08-17T12:06:15;5.40;;;4.30;;
40072;SDS011;25774;52.256;9.356;2023-08-17T12:08:47;5.65;;;3.45;;
40072;SDS011;25774;52.256;9.356;2023-08-17T12:11:12;5.45;;;3.00;;
40072;SDS011;25774;52.256;9.356;2023-08-17T12:13:38;5.53;;;3.40;;
40072;SDS011;25774;52.256;9.356;2023-08-17T12:16:03;4.83;;;2.60;;
40072;SDS011;25774;52.256;9.356;2023-08-17T12:18:31;4.80;;;2.75;;
40072;SDS011;25774;52.256;9.356;2023-08-17T12:20:56;3.20;;;2.20;;
40072;SDS011;25774;52.256;9.356;2023-08-17T12:23:22;4.93;;;2.53;;
40072;SDS011;25774;52.256;9.356;2023-08-17T12:25:51;4.60;;;2.50;;
40072;SDS011;25774;52.256;9.356;2023-08-17T12:28:17;4.13;;;2.40;;
40072;SDS011;25774;52.256;9.356;2023-08-17T12:30:42;4.30;;;2.00;;
40072;SDS011;25774;52.256;9.356;2023-08-17T12:33:08;3.03;;;2.08;;
40072;SDS011;25774;52.256;9.356;2023-08-17T12:35:33;3.33;;;2.23;;
40072;SDS011;25774;52.256;9.356;2023-08-17T12:37:58;3.60;;;2.17;;
40072;SDS011;25774;52.256;9.356;2023-08-17T12:40:24;5.03;;;2.37;;
40072;SDS011;25774;52.256;9.356;2023-08-17T12:42:49;4.73;;;2.80;;
40072;SDS011;25774;52.256;9.356;2023-08-17T12:45:15;3.90;;;2.47;;
40072;SDS011;25774;52.256;9.356;2023-08-17T12:47:40;4.20;;;2.85;;
40072;SDS011;25774;52.256;9.356;2023-08-17T12:50:05;5.33;;;3.57;;
40072;SDS011;25774;52.256;9.356;2023-08-17T12:52:31;6.43;;;3.50;;
40072;SDS011;25774;52.256;9.356;2023-08-17T12:54:56;6.07;;;3.50;;
40072;SDS011;25774;52.256;9.356;2023-08-17T12:57:23;7.88;;;4.35;;
40072;SDS011;25774;52.256;9.356;2023-08-17T12:59:49;7.25;;;4.25;;
40072;SDS011;25774;52.256;9.356;2023-08-17T13:02:14;7.00;;;4.53;;
40072;SDS011;25774;52.256;9.356;2023-08-17T13:04:40;5.83;;;3.80;;
40072;SDS011;25774;52.256;9.356;2023-08-17T13:07:06;6.90;;;4.20;;
40072;SDS011;25774;52.256;9.356;2023-08-17T13:11:56;6.10;;;3.10;;
40072;SDS011;25774;52.256;9.356;2023-08-17T13:14:22;7.20;;;3.73;;
40072;SDS011;25774;52.256;9.356;2023-08-17T13:16:49;4.80;;;3.65;;
40072;SDS011;25774;52.256;9.356;2023-08-17T13:19:14;5.85;;;3.55;;
40072;SDS011;25774;52.256;9.356;2023-08-17T13:21:39;6.20;;;4.60;;
40072;SDS011;25774;52.256;9.356;2023-08-17T13:24:05;6.90;;;5.07;;
40072;SDS011;25774;52.256;9.356;2023-08-17T13:26:30;6.23;;;5.03;;
40072;SDS011;25774;52.256;9.356;2023-08-17T13:28:56;6.20;;;5.13;;
40072;SDS011;25774;52.256;9.356;2023-08-17T13:31:21;10.37;;;5.30;;
40072;SDS011;25774;52.256;9.356;2023-08-17T13:33:46;7.43;;;5.10;;
40072;SDS011;25774;52.256;9.356;2023-08-17T13:36:11;5.03;;;3.77;;
40072;SDS011;25774;52.256;9.356;2023-08-17T13:38:36;6.37;;;4.93;;
40072;SDS011;25774;52.256;9.356;2023-08-17T13:41:03;6.95;;;4.05;;
40072;SDS011;25774;52.256;9.356;2023-08-17T13:43:29;6.10;;;3.90;;
40072;SDS011;25774;52.256;9.356;2023-08-17T13:45:54;5.50;;;3.80;;
40072;SDS011;25774;52.256;9.356;2023-08-17T13:48:19;5.77;;;3.70;;
40072;SDS011;25774;52.256;9.356;2023-08-17T13:50:45;5.93;;;3.83;;
40072;SDS011;25774;52.256;9.356;2023-08-17T13:53:11;6.30;;;3.85;;
40072;SDS011;25774;52.256;9.356;2023-08-17T13:55:36;7.60;;;3.80;;
40072;SDS011;25774;52.256;9.356;2023-08-17T13:58:01;8.53;;;4.00;;
40072;SDS011;25774;52.256;9.356;2023-08-17T14:00:27;7.82;;;3.83;;
40072;SDS011;25774;52.256;9.356;2023-08-17T14:02:52;6.43;;;3.67;;
40072;SDS011;25774;52.256;9.356;2023-08-17T14:05:18;5.80;;;3.50;;
40072;SDS011;25774;52.256;9.356;2023-08-17T14:07:43;6.60;;;4.37;;
40072;SDS011;25774;52.256;9.356;2023-08-17T14:10:09;7.37;;;4.23;;
40072;SDS011;25774;52.256;9.356;2023-08-17T14:12:36;7.80;;;4.25;;
40072;SDS011;25774;52.256;9.356;2023-08-17T14:17:28;6.00;;;4.05;;
40072;SDS011;25774;52.256;9.356;2023-08-17T14:22:20;6.55;;;3.15;;
40072;SDS011;25774;52.256;9.356;2023-08-17T14:24:45;6.10;;;3.20;;
40072;SDS011;25774;52.256;9.356;2023-08-17T14:27:10;5.73;;;3.47;;
40072;SDS011;25774;52.256;9.356;2023-08-17T14:29:35;6.83;;;3.47;;
40072;SDS011;25774;52.256;9.356;2023-08-17T14:32:01;6.03;;;3.37;;
40072;SDS011;25774;52.256;9.356;2023-08-17T14:34:26;7.20;;;3.50;;
40072;SDS011;25774;52.256;9.356;2023-08-17T14:36:51;7.20;;;4.03;;
40072;SDS011;25774;52.256;9.356;2023-08-17T14:39:17;5.80;;;3.80;;
40072;SDS011;25774;52.256;9.356;2023-08-17T14:41:43;7.85;;;3.88;;
40072;SDS011;25774;52.256;9.356;2023-08-17T14:44:09;7.20;;;4.15;;
40072;SDS011;25774;52.256;9.356;2023-08-17T14:46:34;6.27;;;4.17;;
40072;SDS011;25774;52.256;9.356;2023-08-17T14:49:01;8.60;;;4.85;;
40072;SDS011;25774;52.256;9.356;2023-08-17T14:53:51;8.47;;;4.73;;
40072;SDS011;25774;52.256;9.356;2023-08-17T14:56:16;6.97;;;4.20;;
40072;SDS011;25774;52.256;9.356;2023-08-17T14:58:42;6.93;;;4.53;;
40072;SDS011;25774;52.256;9.356;2023-08-17T15:03:33;8.65;;;4.97;;
40072;SDS011;25774;52.256;9.356;2023-08-17T15:05:58;5.00;;;3.73;;
40072;SDS011;25774;52.256;9.356;2023-08-17T15:08:23;8.03;;;4.80;;
40072;SDS011;25774;52.256;9.356;2023-08-17T15:10:54;6.37;;;4.40;;
40072;SDS011;25774;52.256;9.356;2023-08-17T15:13:19;5.88;;;3.97;;
40072;SDS011;25774;52.256;9.356;2023-08-17T15:15:45;6.53;;;4.70;;
40072;SDS011;25774;52.256;9.356;2023-08-17T15:18:10;8.00;;;4.83;;
40072;SDS011;25774;52.256;9.356;2023-08-17T15:20:35;7.37;;;5.20;;
40072;SDS011;25774;52.256;9.356;2023-08-17T15:23:01;7.47;;;5.47;;
40072;SDS011;25774;52.256;9.356;2023-08-17T15:25:26;10.13;;;5.15;;
40072;SDS011;25774;52.256;9.356;2023-08-17T15:27:51;10.37;;;6.37;;
40072;SDS011;25774;52.256;9.356;2023-08-17T15:30:16;8.03;;;5.17;;
40072;SDS011;25774;52.256;9.356;2023-08-17T15:32:42;8.17;;;5.10;;
40072;SDS011;25774;52.256;9.356;2023-08-17T15:35:09;8.80;;;5.73;;
40072;SDS011;25774;52.256;9.356;2023-08-17T15:37:35;7.10;;;5.10;;
40072;SDS011;25774;52.256;9.356;2023-08-17T15:40:03;7.53;;;5.38;;
40072;SDS011;25774;52.256;9.356;2023-08-17T15:42:28;7.53;;;4.88;;
40072;SDS011;25774;52.256;9.356;2023-08-17T15:44:53;8.33;;;5.30;;
40072;SDS011;25774;52.256;9.356;2023-08-17T15:47:18;8.07;;;4.60;;